Time;durP1;ratioP1;P1;durP2;ratioP2;P2;SDS_P1;SDS_P2;PMS_P1;PMS_P2;Temp;Humidity;BMP_temperature;BMP_pressure;BME280_temperature;BME280_humidity;BME280_pressure;Samples;Min_cycle;Max_cycle;Signal;HPM_P1;HPM_P2
2021/03/05 00:02:56;;;;;;;15.20;6.18;;;4.00;99.90;;;;;;10375216;28;20115;-64
2021/03/05 00:08:07;;;;;;;15.38;6.60;;;4.00;99.90;;;;;;10371724;28;20139;-64
2021/03/05 00:13:10;;;;;;;16.48;7.13;;;4.00;99.90;;;;;;10368911;28;20408;-64
2021/03/05 00:18:11;;;;;;;14.57;5.88;;;4.00;99.90;;;;;;10364282;28;20046;-64
2021/03/05 00:23:13;;;;;;;18.52;7.63;;;4.00;99.90;;;;;;10359868;28;20045;-64
2021/03/05 00:28:14;;;;;;;16.35;6.60;;;4.00;99.90;;;;;;10356219;28;20057;-64
2021/03/05 00:33:15;;;;;;;14.60;7.28;;;4.00;99.90;;;;;;10358716;28;20493;-64
2021/03/05 00:38:32;;;;;;;13.95;6.68;;;4.00;99.90;;;;;;10364396;28;20160;-64
2021/03/05 00:43:33;;;;;;;13.05;5.85;;;4.00;99.90;;;;;;10353445;28;20073;-64
2021/03/05 00:48:34;;;;;;;17.13;5.88;;;4.00;99.90;;;;;;10355582;28;20113;-64
2021/03/05 00:53:36;;;;;;;15.88;6.80;;;4.00;99.90;;;;;;10356806;28;20495;-65
2021/03/05 00:58:37;;;;;;;13.50;6.15;;;4.00;99.90;;;;;;10345853;28;20049;-64
2021/03/05 01:03:38;;;;;;;14.18;6.88;;;4.00;99.90;;;;;;10355159;28;20131;-64
2021/03/05 01:08:49;;;;;;;16.13;6.07;;;4.00;99.90;;;;;;10356115;28;20053;-64
2021/03/05 01:13:50;;;;;;;16.13;6.72;;;4.00;99.90;;;;;;10353191;28;20057;-64
2021/03/05 01:18:52;;;;;;;13.95;5.97;;;4.00;99.90;;;;;;10356035;28;20140;-64
2021/03/05 01:23:53;;;;;;;13.50;6.15;;;4.00;99.90;;;;;;10354478;28;20143;-64
2021/03/05 01:28:54;;;;;;;15.07;6.65;;;4.00;99.90;;;;;;10357294;28;20080;-64
2021/03/05 01:33:55;;;;;;;19.65;7.65;;;3.90;99.90;;;;;;10355590;28;20060;-64
2021/03/05 01:39:09;;;;;;;18.50;7.47;;;3.90;99.90;;;;;;10344321;28;20068;-64
2021/03/05 01:44:13;;;;;;;14.88;5.78;;;4.00;99.90;;;;;;10359034;28;20199;-64
2021/03/05 01:49:14;;;;;;;16.80;6.72;;;3.90;99.90;;;;;;10360465;28;20064;-64
2021/03/05 01:54:16;;;;;;;14.10;6.45;;;3.90;99.90;;;;;;10353355;28;20063;-64
2021/03/05 01:59:37;;;;;;;16.25;7.38;;;3.90;99.90;;;;;;10352100;28;20147;-64
2021/03/05 02:04:39;;;;;;;14.88;6.85;;;3.90;99.90;;;;;;10354957;28;20129;-64
2021/03/05 02:09:40;;;;;;;18.73;6.60;;;3.90;99.90;;;;;;10362307;28;20054;-64
2021/03/05 02:14:42;;;;;;;15.77;7.05;;;3.90;99.90;;;;;;10419360;28;20064;-64
2021/03/05 02:20:21;;;;;;;16.80;7.85;;;3.90;99.90;;;;;;10418812;28;20142;-64
2021/03/05 02:25:30;;;;;;;18.77;7.55;;;3.90;99.90;;;;;;10313103;28;20056;-64
2021/03/05 02:30:53;;;;;;;22.23;8.75;;;3.90;99.90;;;;;;10417172;28;20064;-64
2021/03/05 02:35:56;;;;;;;17.95;7.95;;;3.90;99.90;;;;;;10406323;28;20061;-64
2021/03/05 02:41:00;;;;;;;20.85;8.40;;;3.90;99.90;;;;;;10422323;28;20053;-64
2021/03/05 02:46:05;;;;;;;18.05;7.38;;;3.90;99.90;;;;;;10416739;28;20064;-64
2021/03/05 02:51:08;;;;;;;20.40;8.80;;;3.90;99.90;;;;;;10421019;28;20060;-64
2021/03/05 02:56:19;;;;;;;19.45;8.32;;;4.00;99.90;;;;;;10423422;28;20056;-64
2021/03/05 03:01:24;;;;;;;19.73;7.88;;;4.00;99.90;;;;;;10393690;28;20057;-64
2021/03/05 03:06:26;;;;;;;20.55;7.63;;;4.00;99.90;;;;;;10415631;28;20171;-64
2021/03/05 03:11:27;;;;;;;23.58;9.07;;;4.00;99.90;;;;;;10399466;28;20083;-64
2021/03/05 03:16:30;;;;;;;19.75;8.20;;;4.00;99.90;;;;;;10363546;28;20151;-64
2021/03/05 03:21:32;;;;;;;20.50;8.07;;;4.00;99.90;;;;;;10367396;28;20136;-64
2021/03/05 03:26:36;;;;;;;17.05;6.97;;;4.00;99.90;;;;;;10360263;28;20507;-64
2021/03/05 03:31:41;;;;;;;20.27;8.27;;;4.00;99.90;;;;;;10361169;28;20175;-64
2021/03/05 03:36:43;;;;;;;16.27;6.95;;;4.00;99.90;;;;;;10360797;28;20056;-64
2021/03/05 03:41:45;;;;;;;17.10;8.00;;;3.90;99.90;;;;;;10360991;28;20232;-64
2021/03/05 03:46:48;;;;;;;22.58;8.05;;;3.90;99.90;;;;;;10362862;28;20061;-64
2021/03/05 03:51:57;;;;;;;19.33;8.25;;;3.90;99.90;;;;;;10363869;28;20057;-64
2021/03/05 03:57:01;;;;;;;16.60;6.60;;;3.90;99.90;;;;;;10362136;28;20585;-64
2021/03/05 04:02:04;;;;;;;18.75;7.38;;;3.90;99.90;;;;;;10364332;28;20115;-64
2021/03/05 04:07:07;;;;;;;19.88;7.88;;;3.80;99.90;;;;;;10366352;28;20127;-64
2021/03/05 04:12:09;;;;;;;17.75;7.30;;;3.80;99.90;;;;;;10364392;28;20412;-62
2021/03/05 04:17:10;;;;;;;14.82;5.90;;;3.80;99.90;;;;;;10350524;28;20053;-62
2021/03/05 04:22:13;;;;;;;21.90;7.90;;;3.80;99.90;;;;;;10362808;28;20045;-62
2021/03/05 04:27:14;;;;;;;15.05;6.65;;;3.70;99.90;;;;;;10362996;28;21154;-62
2021/03/05 04:32:15;;;;;;;15.50;5.93;;;3.70;99.90;;;;;;10360089;28;20060;-62
2021/03/05 04:37:17;;;;;;;14.07;5.55;;;3.70;99.90;;;;;;10364965;28;20042;-62
2021/03/05 04:42:18;;;;;;;14.27;4.93;;;3.70;99.90;;;;;;10368017;28;20459;-62
2021/03/05 04:47:19;;;;;;;13.98;5.95;;;3.70;99.90;;;;;;10361922;28;20077;-61
2021/03/05 04:52:21;;;;;;;19.63;6.78;;;3.70;99.90;;;;;;10354453;28;20065;-61
2021/03/05 04:57:22;;;;;;;13.27;6.03;;;3.70;99.90;;;;;;10366969;28;20057;-61
2021/03/05 05:02:23;;;;;;;13.27;5.70;;;3.70;99.90;;;;;;10362066;28;20310;-61
2021/03/05 05:07:25;;;;;;;15.35;5.85;;;3.60;99.90;;;;;;10362417;28;20049;-62
2021/03/05 05:12:26;;;;;;;14.05;5.88;;;3.60;99.90;;;;;;10361077;28;20530;-61
2021/03/05 05:17:28;;;;;;;14.60;5.53;;;3.60;99.90;;;;;;10362989;28;20053;-61
2021/03/05 05:22:31;;;;;;;14.32;5.13;;;3.60;99.90;;;;;;10363289;28;20046;-61
2021/03/05 05:27:33;;;;;;;13.48;6.30;;;3.60;99.90;;;;;;10359459;28;20608;-61
2021/03/05 05:32:34;;;;;;;17.83;5.70;;;3.50;99.90;;;;;;10361547;28;20045;-61
2021/03/05 05:37:35;;;;;;;17.45;5.55;;;3.60;99.90;;;;;;10366057;28;20057;-61
2021/03/05 05:42:37;;;;;;;16.38;6.15;;;3.60;99.90;;;;;;10352657;28;20061;-61
2021/03/05 05:47:38;;;;;;;15.63;6.20;;;3.70;99.90;;;;;;10372269;28;20053;-61
2021/03/05 05:52:44;;;;;;;17.85;6.90;;;3.70;99.90;;;;;;10370962;28;20064;-62
2021/03/05 05:57:45;;;;;;;16.88;5.97;;;3.60;99.90;;;;;;10367230;28;20054;-62
2021/03/05 06:02:48;;;;;;;18.00;5.68;;;3.60;99.90;;;;;;10378190;28;20116;-59
2021/03/05 06:07:50;;;;;;;17.67;6.57;;;3.60;99.90;;;;;;10373798;28;20050;-59
2021/03/05 06:12:51;;;;;;;12.20;5.25;;;3.60;99.90;;;;;;10375167;28;20104;-60
2021/03/05 06:17:52;;;;;;;12.77;5.13;;;3.60;99.90;;;;;;10370399;28;20057;-59
2021/03/05 06:23:14;;;;;;;20.45;5.95;;;3.60;99.90;;;;;;10372254;28;20480;-59
2021/03/05 06:28:16;;;;;;;18.02;5.70;;;3.60;99.90;;;;;;10369802;28;20044;-59
2021/03/05 06:33:29;;;;;;;13.35;5.55;;;3.60;99.90;;;;;;10355590;28;20045;-59
2021/03/05 06:38:45;;;;;;;13.70;5.35;;;3.60;99.90;;;;;;10374853;28;20527;-59
2021/03/05 06:43:49;;;;;;;21.95;4.65;;;3.70;99.90;;;;;;10366358;28;20069;-60
2021/03/05 06:48:51;;;;;;;14.65;5.75;;;3.70;99.90;;;;;;10370234;28;20089;-59
2021/03/05 06:54:28;;;;;;;19.92;5.57;;;3.60;99.90;;;;;;10375528;28;20061;-59
2021/03/05 06:59:38;;;;;;;17.85;5.82;;;3.70;99.90;;;;;;10295627;28;20052;-60
2021/03/05 07:04:42;;;;;;;13.15;5.03;;;3.80;99.90;;;;;;10370563;28;20053;-59
2021/03/05 07:09:46;;;;;;;20.35;5.75;;;3.80;99.90;;;;;;10362466;28;20055;-59
2021/03/05 07:15:00;;;;;;;9.35;4.68;;;3.80;99.90;;;;;;10358156;28;20110;-60
2021/03/05 07:20:06;;;;;;;11.07;4.40;;;3.80;99.90;;;;;;10358728;28;20186;-59
2021/03/05 07:25:08;;;;;;;18.60;7.32;;;3.50;99.90;;;;;;10353615;28;20084;-59
2021/03/05 07:30:16;;;;;;;11.65;5.47;;;3.30;99.90;;;;;;10360200;28;20057;-59
2021/03/05 07:35:20;;;;;;;14.13;5.72;;;3.20;99.90;;;;;;10225993;28;20038;-59
2021/03/05 07:40:22;;;;;;;14.35;6.13;;;3.30;99.90;;;;;;10363410;28;20135;-59
2021/03/05 07:45:23;;;;;;;13.55;5.57;;;3.30;99.90;;;;;;10361065;28;20136;-59
2021/03/05 07:50:26;;;;;;;13.30;6.53;;;3.40;99.90;;;;;;10354460;28;20065;-59
2021/03/05 07:55:42;;;;;;;14.23;6.18;;;3.50;99.90;;;;;;10357009;28;20491;-59
2021/03/05 08:00:48;;;;;;;13.57;6.32;;;3.60;99.90;;;;;;10358970;28;20484;-60
2021/03/05 08:05:54;;;;;;;11.52;5.63;;;3.70;99.90;;;;;;10353270;28;20485;-60
2021/03/05 08:11:05;;;;;;;10.23;4.80;;;3.80;99.90;;;;;;10357665;28;20146;-61
2021/03/05 08:16:25;;;;;;;13.25;6.55;;;4.40;99.90;;;;;;10365049;28;20054;-61
2021/03/05 08:21:51;;;;;;;13.02;4.80;;;4.30;99.90;;;;;;10308653;28;20112;-60
2021/03/05 08:27:07;;;;;;;12.77;5.72;;;4.40;99.90;;;;;;10360985;28;20049;-60
2021/03/05 08:32:33;;;;;;;9.85;4.50;;;4.40;99.90;;;;;;10362767;28;20441;-61
2021/03/05 08:37:41;;;;;;;12.40;5.72;;;4.40;99.90;;;;;;10303476;28;20044;-61
2021/03/05 08:42:47;;;;;;;10.25;5.38;;;4.50;99.90;;;;;;10368092;28;20057;-60
2021/03/05 08:47:50;;;;;;;16.30;5.15;;;4.60;99.90;;;;;;10363568;28;20084;-60
2021/03/05 08:52:52;;;;;;;13.02;5.60;;;4.80;99.90;;;;;;10361320;28;20062;-60
2021/03/05 08:57:54;;;;;;;7.88;4.15;;;5.00;99.90;;;;;;10366154;28;20061;-60
2021/03/05 09:03:13;;;;;;;9.88;4.72;;;5.00;99.90;;;;;;10358052;28;20061;-60
2021/03/05 09:08:17;;;;;;;8.00;4.55;;;5.00;99.90;;;;;;10358995;28;20042;-60
2021/03/05 09:13:33;;;;;;;9.40;4.45;;;5.40;99.90;;;;;;10369369;28;20066;-60
2021/03/05 09:18:37;;;;;;;9.60;4.13;;;5.50;99.90;;;;;;10367955;28;20068;-59
2021/03/05 09:23:41;;;;;;;11.15;4.85;;;5.40;99.90;;;;;;10368154;28;20045;-60
2021/03/05 09:28:46;;;;;;;7.35;3.58;;;5.50;99.90;;;;;;10368460;28;20045;-60
2021/03/05 09:33:47;;;;;;;6.88;4.25;;;5.40;99.90;;;;;;10358502;28;20476;-60
2021/03/05 09:38:57;;;;;;;9.73;4.18;;;5.40;99.20;;;;;;10352813;28;20452;-59
2021/03/05 09:44:01;;;;;;;8.90;4.03;;;5.40;99.90;;;;;;10365609;28;20475;-60
2021/03/05 09:49:24;;;;;;;9.68;4.55;;;5.50;99.70;;;;;;10364931;28;20059;-60
2021/03/05 09:54:40;;;;;;;7.00;2.97;;;5.50;97.70;;;;;;10313142;28;20165;-60
2021/03/05 09:59:46;;;;;;;8.63;3.50;;;5.60;95.80;;;;;;10358578;28;20899;-60
2021/03/05 10:04:51;;;;;;;6.83;3.67;;;5.70;94.00;;;;;;10361323;28;20131;-60
2021/03/05 10:10:07;;;;;;;7.25;3.60;;;5.70;92.60;;;;;;10360340;28;20587;-60
2021/03/05 10:15:08;;;;;;;7.10;3.13;;;5.60;93.30;;;;;;10367594;28;20056;-61
2021/03/05 10:20:11;;;;;;;8.98;3.72;;;5.60;91.70;;;;;;10374411;28;20049;-60
2021/03/05 10:25:12;;;;;;;6.30;3.47;;;5.60;91.00;;;;;;10370147;28;20050;-60
2021/03/05 10:30:14;;;;;;;6.70;3.35;;;5.60;91.30;;;;;;10375125;28;20050;-60
2021/03/05 10:35:16;;;;;;;6.47;3.67;;;5.70;92.00;;;;;;10376354;28;20046;-61
2021/03/05 10:40:19;;;;;;;8.90;4.40;;;5.80;91.00;;;;;;10377478;28;20073;-60
2021/03/05 10:45:20;;;;;;;8.77;3.45;;;5.90;91.20;;;;;;10375922;28;20053;-60
2021/03/05 10:50:22;;;;;;;7.90;3.78;;;5.90;91.30;;;;;;10377592;28;20392;-60
2021/03/05 10:55:23;;;;;;;8.70;4.10;;;6.10;91.10;;;;;;10375213;28;20099;-60
2021/03/05 11:00:25;;;;;;;6.60;3.42;;;6.20;91.00;;;;;;10376983;28;20049;-60
2021/03/05 11:05:27;;;;;;;10.90;3.72;;;6.30;89.20;;;;;;10377333;28;20073;-60
2021/03/05 11:10:28;;;;;;;7.50;3.47;;;6.30;90.70;;;;;;10373216;28;20077;-60
2021/03/05 11:15:30;;;;;;;8.20;3.45;;;6.30;88.70;;;;;;10365854;28;21627;-60
2021/03/05 11:20:32;;;;;;;7.85;3.60;;;6.30;89.90;;;;;;10375008;28;20045;-60
2021/03/05 11:25:33;;;;;;;5.38;3.58;;;6.20;90.30;;;;;;10373625;28;20081;-60
2021/03/05 11:30:38;;;;;;;5.43;3.08;;;6.10;90.10;;;;;;10367788;28;20049;-61
2021/03/05 11:35:39;;;;;;;7.35;3.38;;;6.20;89.50;;;;;;10369601;28;20510;-60
2021/03/05 11:40:40;;;;;;;6.85;3.50;;;6.40;88.40;;;;;;10367160;28;20071;-60
2021/03/05 11:45:41;;;;;;;6.70;3.58;;;6.50;88.80;;;;;;10371419;28;20064;-61
2021/03/05 11:50:43;;;;;;;6.43;3.50;;;6.50;86.70;;;;;;10369979;28;20057;-59
2021/03/05 11:55:44;;;;;;;6.13;3.80;;;6.80;87.10;;;;;;10369847;28;20493;-60
2021/03/05 12:00:46;;;;;;;6.45;3.10;;;6.80;86.20;;;;;;10369916;28;20057;-60
2021/03/05 12:05:48;;;;;;;5.80;2.95;;;8.20;82.70;;;;;;10371476;28;20045;-60
2021/03/05 12:10:49;;;;;;;4.65;3.13;;;8.90;76.50;;;;;;10371410;28;20447;-60
2021/03/05 12:15:51;;;;;;;4.50;3.05;;;10.50;71.60;;;;;;10359452;28;20050;-59
2021/03/05 12:20:53;;;;;;;4.95;3.00;;;11.30;65.70;;;;;;10361592;28;20491;-60
2021/03/05 12:25:54;;;;;;;5.82;3.10;;;10.10;68.70;;;;;;10364166;28;20053;-60
2021/03/05 12:30:55;;;;;;;4.07;2.83;;;10.20;71.10;;;;;;10365471;28;20082;-61
2021/03/05 12:35:56;;;;;;;4.68;2.72;;;10.70;66.70;;;;;;10360490;28;20045;-60
2021/03/05 12:40:58;;;;;;;6.40;2.55;;;9.90;69.00;;;;;;10361012;28;20058;-60
2021/03/05 12:46:00;;;;;;;5.45;2.40;;;9.60;69.20;;;;;;10360684;28;20061;-60
2021/03/05 12:51:16;;;;;;;4.78;2.92;;;8.90;69.90;;;;;;10355390;28;20061;-59
2021/03/05 12:56:17;;;;;;;6.72;3.58;;;8.20;72.70;;;;;;10359103;28;20050;-59
2021/03/05 13:01:22;;;;;;;6.07;3.45;;;8.30;73.70;;;;;;10359528;28;20065;-59
2021/03/05 13:06:23;;;;;;;4.45;2.70;;;9.10;73.20;;;;;;10360264;28;20052;-60
2021/03/05 13:11:25;;;;;;;4.28;2.75;;;10.20;68.10;;;;;;10373953;28;20064;-60
2021/03/05 13:16:27;;;;;;;4.38;2.88;;;9.80;67.40;;;;;;10400097;28;20081;-60
2021/03/05 13:21:30;;;;;;;4.65;2.53;;;9.60;66.40;;;;;;10399103;28;20087;-59
2021/03/05 13:26:32;;;;;;;3.58;2.22;;;9.20;67.80;;;;;;10402194;28;20543;-59
2021/03/05 13:31:33;;;;;;;4.03;2.30;;;8.80;69.50;;;;;;10401374;28;20060;-59
2021/03/05 13:36:35;;;;;;;3.72;2.22;;;8.80;69.20;;;;;;10397899;28;20040;-59
2021/03/05 13:41:36;;;;;;;4.90;2.80;;;8.50;69.40;;;;;;10396986;28;20454;-60
2021/03/05 13:46:38;;;;;;;5.18;2.47;;;8.40;72.20;;;;;;10396038;28;20707;-59
2021/03/05 13:51:39;;;;;;;4.63;2.20;;;8.40;72.60;;;;;;10400154;28;20053;-59
2021/03/05 13:56:41;;;;;;;3.22;1.50;;;8.20;69.00;;;;;;10400397;28;20056;-59
2021/03/05 14:01:42;;;;;;;2.67;1.45;;;8.10;69.30;;;;;;10403668;28;20060;-60
2021/03/05 14:06:43;;;;;;;5.32;2.20;;;8.30;69.10;;;;;;10391282;28;21635;-59
2021/03/05 14:11:44;;;;;;;3.58;1.95;;;9.10;67.50;;;;;;10411697;28;20055;-59
2021/03/05 14:16:45;;;;;;;5.07;1.88;;;9.60;65.30;;;;;;10409359;28;20076;-59
2021/03/05 14:21:47;;;;;;;3.70;2.42;;;9.20;63.70;;;;;;10403065;28;20087;-59
2021/03/05 14:26:48;;;;;;;4.85;2.70;;;9.50;65.30;;;;;;10396853;28;20052;-59
2021/03/05 14:31:50;;;;;;;3.92;2.30;;;9.10;66.20;;;;;;10405519;28;20057;-60
2021/03/05 14:36:51;;;;;;;4.28;2.30;;;9.60;66.10;;;;;;10402324;28;20484;-60
2021/03/05 14:41:55;;;;;;;2.95;1.90;;;9.50;62.40;;;;;;10396406;28;20648;-60
2021/03/05 14:46:56;;;;;;;3.30;2.05;;;9.90;61.70;;;;;;10406962;28;20057;-60
2021/03/05 14:51:57;;;;;;;4.60;2.78;;;9.90;61.70;;;;;;10388276;28;20488;-60
2021/03/05 14:56:58;;;;;;;4.10;2.63;;;10.20;63.10;;;;;;10391126;28;20077;-60
2021/03/05 15:02:00;;;;;;;4.40;2.80;;;9.90;61.60;;;;;;10404869;28;20108;-60
2021/03/05 15:07:03;;;;;;;4.78;2.22;;;9.40;62.60;;;;;;10399346;28;20100;-61
2021/03/05 15:12:06;;;;;;;2.92;2.10;;;9.90;59.00;;;;;;10403057;28;20156;-60
2021/03/05 15:17:08;;;;;;;2.95;1.83;;;9.70;60.60;;;;;;10411544;28;20114;-60
2021/03/05 15:22:10;;;;;;;3.78;1.95;;;9.10;64.20;;;;;;10406644;28;20146;-61
2021/03/05 15:27:11;;;;;;;3.28;1.80;;;8.90;65.60;;;;;;10405935;28;20063;-61
2021/03/05 15:32:13;;;;;;;5.15;1.83;;;8.30;65.00;;;;;;10408561;28;20072;-60
2021/03/05 15:37:14;;;;;;;7.47;1.83;;;7.90;67.70;;;;;;10403785;28;20053;-61
2021/03/05 15:42:15;;;;;;;3.95;1.77;;;7.60;68.00;;;;;;10407655;28;20041;-60
2021/03/05 15:47:17;;;;;;;3.78;1.63;;;7.70;66.70;;;;;;10401942;28;20057;-60
2021/03/05 15:52:18;;;;;;;3.75;1.80;;;8.00;64.70;;;;;;10409044;28;20128;-61
2021/03/05 15:57:20;;;;;;;4.75;1.73;;;8.40;63.70;;;;;;10406336;28;20053;-61
2021/03/05 16:02:21;;;;;;;3.17;1.50;;;8.60;63.70;;;;;;10404611;28;20077;-61
2021/03/05 16:07:22;;;;;;;2.78;1.85;;;9.20;61.00;;;;;;10405628;28;20049;-60
2021/03/05 16:12:23;;;;;;;2.83;1.65;;;9.20;60.00;;;;;;10388626;28;20119;-60
2021/03/05 16:17:25;;;;;;;4.57;2.45;;;9.10;59.20;;;;;;10373168;28;20061;-60
2021/03/05 16:22:26;;;;;;;8.05;3.47;;;8.80;59.80;;;;;;10373138;28;20530;-60
2021/03/05 16:27:27;;;;;;;5.15;2.67;;;8.50;61.50;;;;;;10373006;28;20049;-61
2021/03/05 16:32:28;;;;;;;6.07;2.10;;;8.20;63.00;;;;;;10352293;28;20064;-61
2021/03/05 16:37:31;;;;;;;5.60;2.55;;;8.10;64.10;;;;;;10369264;28;20496;-60
2021/03/05 16:42:32;;;;;;;5.75;2.95;;;7.80;64.10;;;;;;10371570;28;20459;-60
2021/03/05 16:47:34;;;;;;;5.47;1.92;;;7.60;65.30;;;;;;10362832;28;20041;-60
2021/03/05 16:52:36;;;;;;;3.22;2.05;;;7.30;67.60;;;;;;10368280;28;20085;-60
2021/03/05 16:57:38;;;;;;;2.80;1.75;;;7.10;67.30;;;;;;10368798;28;20049;-60
2021/03/05 17:02:40;;;;;;;5.25;2.25;;;6.80;68.50;;;;;;10371040;28;20049;-60
2021/03/05 17:07:42;;;;;;;3.65;1.75;;;6.50;70.20;;;;;;10367487;28;21005;-61
2021/03/05 17:12:44;;;;;;;9.95;2.85;;;6.30;71.40;;;;;;10370152;28;20111;-62
2021/03/05 17:17:45;;;;;;;4.70;2.10;;;6.00;73.60;;;;;;10369689;28;20500;-60
2021/03/05 17:22:46;;;;;;;4.97;2.38;;;5.60;74.00;;;;;;10362816;28;20489;-62
2021/03/05 17:27:48;;;;;;;4.80;2.55;;;5.40;75.40;;;;;;10365934;28;20045;-63
2021/03/05 17:32:50;;;;;;;5.90;2.90;;;5.10;76.20;;;;;;10360131;28;20080;-62
2021/03/05 17:37:51;;;;;;;6.95;3.30;;;4.90;78.40;;;;;;10370876;28;20052;-63
2021/03/05 17:42:52;;;;;;;5.75;3.47;;;4.90;79.00;;;;;;10374979;28;20053;-62
2021/03/05 17:47:54;;;;;;;4.43;2.22;;;4.80;80.60;;;;;;10374900;28;20115;-62
2021/03/05 17:52:55;;;;;;;6.10;2.67;;;4.80;80.30;;;;;;10375927;28;20141;-63
2021/03/05 17:57:56;;;;;;;7.22;3.65;;;4.80;80.90;;;;;;10375742;28;20053;-63
2021/03/05 18:02:57;;;;;;;6.50;3.20;;;4.60;82.00;;;;;;10374398;28;20057;-63
2021/03/05 18:07:59;;;;;;;12.23;3.17;;;4.60;84.30;;;;;;10380513;28;20527;-63
2021/03/05 18:13:00;;;;;;;9.85;2.63;;;4.40;82.60;;;;;;10364940;28;20694;-63
2021/03/05 18:18:02;;;;;;;5.78;2.72;;;4.10;82.80;;;;;;10370411;28;20041;-63
2021/03/05 18:23:04;;;;;;;6.43;3.30;;;3.90;83.80;;;;;;10364407;28;20056;-62
2021/03/05 18:28:14;;;;;;;7.10;3.90;;;3.80;84.60;;;;;;10363323;28;20089;-63
2021/03/05 18:33:15;;;;;;;8.25;3.05;;;3.60;85.30;;;;;;10362101;28;21642;-63
2021/03/05 18:38:17;;;;;;;6.95;2.67;;;3.40;85.30;;;;;;10364480;28;20041;-62
2021/03/05 18:43:18;;;;;;;8.43;3.45;;;3.30;86.40;;;;;;10371995;28;20135;-62
2021/03/05 18:48:20;;;;;;;10.13;3.78;;;3.20;87.10;;;;;;10348325;28;20151;-62
2021/03/05 18:53:22;;;;;;;8.05;4.35;;;3.00;88.00;;;;;;10364407;28;20103;-61
2021/03/05 18:58:23;;;;;;;7.70;3.63;;;2.90;90.00;;;;;;10363580;28;20068;-61
2021/03/05 19:03:24;;;;;;;9.43;3.45;;;2.70;90.40;;;;;;10363330;28;20057;-62
2021/03/05 19:08:26;;;;;;;5.85;3.45;;;2.60;90.90;;;;;;10365726;28;20056;-62
2021/03/05 19:13:27;;;;;;;11.40;6.68;;;2.50;90.60;;;;;;10368970;28;20436;-61
2021/03/05 19:18:29;;;;;;;12.13;7.90;;;2.40;90.50;;;;;;10376334;28;20123;-61
2021/03/05 19:23:30;;;;;;;10.43;5.43;;;2.40;90.20;;;;;;10371927;28;20042;-61
2021/03/05 19:28:31;;;;;;;13.15;8.20;;;2.40;89.90;;;;;;10371228;28;20041;-61
2021/03/05 19:33:33;;;;;;;9.82;5.22;;;2.30;91.30;;;;;;10375641;28;20045;-61
2021/03/05 19:38:34;;;;;;;18.92;8.07;;;2.20;90.40;;;;;;10372061;28;20067;-63
2021/03/05 19:43:36;;;;;;;8.88;5.63;;;2.20;90.20;;;;;;10372356;28;20058;-63
2021/03/05 19:48:37;;;;;;;8.25;4.00;;;2.10;90.20;;;;;;10363793;28;20107;-63
2021/03/05 19:53:39;;;;;;;4.32;2.45;;;2.10;88.10;;;;;;10367007;28;20088;-64
2021/03/05 19:58:40;;;;;;;6.53;2.28;;;2.10;86.40;;;;;;10367603;28;20053;-64
2021/03/05 20:03:41;;;;;;;5.90;2.28;;;2.00;86.00;;;;;;10369955;28;20049;-65
2021/03/05 20:08:43;;;;;;;4.45;2.15;;;2.00;86.30;;;;;;10370613;28;20050;-64
2021/03/05 20:13:44;;;;;;;7.70;2.38;;;1.90;86.50;;;;;;10397875;28;20053;-65
2021/03/05 20:18:45;;;;;;;4.40;2.45;;;1.90;87.00;;;;;;10395969;28;20533;-65
2021/03/05 20:23:47;;;;;;;5.53;3.03;;;1.80;87.40;;;;;;10399581;28;20053;-65
2021/03/05 20:28:48;;;;;;;4.38;2.65;;;1.80;88.20;;;;;;10385912;28;20451;-63
2021/03/05 20:33:50;;;;;;;7.20;3.58;;;1.60;89.30;;;;;;10400293;28;20048;-63
2021/03/05 20:38:52;;;;;;;7.38;3.63;;;1.50;88.40;;;;;;10396823;28;20046;-63
2021/03/05 20:43:53;;;;;;;5.55;3.38;;;1.50;88.50;;;;;;10391962;28;20068;-62
2021/03/05 20:48:55;;;;;;;8.05;3.00;;;1.40;89.40;;;;;;10399852;28;20099;-63
2021/03/05 20:53:56;;;;;;;7.07;2.45;;;1.40;89.30;;;;;;10402263;28;20126;-62
2021/03/05 20:58:58;;;;;;;6.72;2.80;;;1.30;89.00;;;;;;10396236;28;20049;-62
2021/03/05 21:04:00;;;;;;;6.43;3.22;;;1.30;90.40;;;;;;10394559;28;20049;-63
2021/03/05 21:09:01;;;;;;;9.43;3.97;;;1.20;90.40;;;;;;10395817;28;20139;-63
2021/03/05 21:14:03;;;;;;;8.13;4.32;;;1.10;90.60;;;;;;10397488;28;20118;-62
2021/03/05 21:19:05;;;;;;;9.60;3.90;;;1.00;90.70;;;;;;10402082;28;20045;-62
2021/03/05 21:24:06;;;;;;;8.05;3.08;;;0.90;91.00;;;;;;10403745;28;20045;-62
2021/03/05 21:29:07;;;;;;;5.97;2.92;;;0.80;92.20;;;;;;10407754;28;20060;-63
2021/03/05 21:34:09;;;;;;;5.43;2.20;;;0.80;92.80;;;;;;10385470;28;20479;-62
2021/03/05 21:39:11;;;;;;;8.68;3.70;;;0.70;92.80;;;;;;10400886;28;20053;-62
2021/03/05 21:44:12;;;;;;;9.27;3.90;;;0.60;92.80;;;;;;10393273;28;20051;-62
2021/03/05 21:49:14;;;;;;;6.50;3.38;;;0.60;92.80;;;;;;10398598;28;20053;-62
2021/03/05 21:54:31;;;;;;;;;;;0.60;93.70;;;;;;10346821;28;20103;-63
2021/03/05 21:59:32;;;;;;;11.55;5.07;;;0.50;93.00;;;;;;10386962;28;19945;-63
2021/03/05 22:04:35;;;;;;;8.00;5.47;;;0.50;92.80;;;;;;10375837;28;20053;-62
2021/03/05 22:09:49;;;;;;;7.95;3.55;;;0.50;93.10;;;;;;10399441;28;20115;-63
2021/03/05 22:14:51;;;;;;;9.65;4.88;;;0.50;93.80;;;;;;10390439;28;20108;-62
2021/03/05 22:19:52;;;;;;;6.75;3.20;;;0.40;94.30;;;;;;10391038;28;20041;-62
2021/03/05 22:24:53;;;;;;;4.78;1.90;;;0.40;94.00;;;;;;10397313;28;20061;-62
2021/03/05 22:29:54;;;;;;;6.53;2.50;;;0.30;94.10;;;;;;10393073;28;20049;-62
2021/03/05 22:34:56;;;;;;;7.05;2.97;;;0.30;94.50;;;;;;10398045;28;20049;-62
2021/03/05 22:39:57;;;;;;;6.43;2.72;;;0.20;94.50;;;;;;10369741;28;20372;-62
2021/03/05 22:44:58;;;;;;;8.98;2.90;;;0.20;94.90;;;;;;10394761;28;20450;-62
2021/03/05 22:49:59;;;;;;;5.57;2.13;;;0.20;94.30;;;;;;10396497;28;20068;-62
2021/03/05 22:55:12;;;;;;;4.38;2.13;;;0.20;94.20;;;;;;10374741;28;20049;-63
2021/03/05 23:00:25;;;;;;;8.43;2.70;;;0.10;94.70;;;;;;10385692;28;20115;-62
2021/03/05 23:05:26;;;;;;;5.50;2.25;;;0.10;95.10;;;;;;10394472;28;20103;-62
2021/03/05 23:10:31;;;;;;;3.45;2.28;;;0.10;95.40;;;;;;10396787;28;20060;-61
2021/03/05 23:15:34;;;;;;;5.88;2.92;;;0.00;95.50;;;;;;10392132;28;21726;-61
2021/03/05 23:20:40;;;;;;;4.03;1.92;;;0.00;95.60;;;;;;10399497;28;20115;-61
2021/03/05 23:25:42;;;;;;;7.43;2.47;;;-0.10;96.30;;;;;;10395699;28;20064;-61
2021/03/05 23:30:44;;;;;;;6.18;2.13;;;-0.20;96.60;;;;;;10381080;28;20057;-61
2021/03/05 23:35:45;;;;;;;6.40;2.38;;;-0.30;97.70;;;;;;10395190;28;20191;-61
2021/03/05 23:40:47;;;;;;;8.40;2.95;;;-0.40;98.90;;;;;;10392361;28;20057;-61
2021/03/05 23:45:48;;;;;;;6.65;3.20;;;-0.40;99.80;;;;;;10394863;28;20115;-61
2021/03/05 23:50:49;;;;;;;6.43;2.63;;;-0.50;99.90;;;;;;10397215;28;20416;-61
2021/03/05 23:55:59;;;;;;;6.45;2.90;;;-0.50;99.90;;;;;;10394541;28;20052;-61
